createdAt,value
2018-03-29T00:01:11.714Z,30.33
2018-03-29T00:03:39.070Z,32.10
2018-03-29T00:06:06.429Z,32.53
2018-03-29T00:08:33.821Z,32.87
2018-03-29T00:11:01.227Z,34.80
2018-03-29T00:13:28.599Z,33.90
2018-03-29T00:15:56.001Z,33.33
2018-03-29T00:18:23.379Z,33.17
2018-03-29T00:20:50.750Z,34.50
2018-03-29T00:23:18.313Z,32.97
2018-03-29T00:25:45.685Z,33.50
2018-03-29T00:28:13.045Z,33.03
2018-03-29T00:30:40.423Z,31.90
2018-03-29T00:33:07.783Z,33.13
2018-03-29T00:35:35.174Z,35.10
2018-03-29T00:38:02.582Z,32.80
2018-03-29T00:40:29.938Z,33.20
2018-03-29T00:42:57.338Z,33.60
2018-03-29T00:45:24.729Z,35.70
2018-03-29T00:47:52.114Z,34.50
2018-03-29T00:50:19.509Z,33.20
2018-03-29T00:52:46.898Z,32.50
2018-03-29T00:55:14.286Z,32.93
2018-03-29T00:57:41.678Z,32.27
2018-03-29T01:00:09.036Z,32.10
2018-03-29T01:02:36.397Z,31.33
2018-03-29T01:05:03.797Z,31.00
2018-03-29T01:07:31.174Z,30.47
2018-03-29T01:09:58.545Z,31.87
2018-03-29T01:12:26.049Z,31.93
2018-03-29T01:14:53.408Z,33.30
2018-03-29T01:17:20.778Z,32.17
2018-03-29T01:19:48.177Z,31.27
2018-03-29T01:22:15.532Z,31.87
2018-03-29T01:24:42.897Z,30.07
2018-03-29T01:27:10.301Z,32.60
2018-03-29T01:29:37.657Z,31.00
2018-03-29T01:32:05.015Z,31.67
2018-03-29T01:34:32.411Z,31.57
2018-03-29T01:36:59.770Z,32.17
2018-03-29T01:39:27.129Z,30.87
2018-03-29T01:41:54.545Z,30.53
2018-03-29T01:44:21.957Z,31.13
2018-03-29T01:46:49.318Z,33.27
2018-03-29T01:49:16.729Z,31.43
2018-03-29T01:51:44.105Z,32.20
2018-03-29T01:54:11.460Z,33.30
2018-03-29T01:56:38.857Z,32.40
2018-03-29T01:59:06.223Z,33.10
2018-03-29T02:01:33.586Z,32.97
2018-03-29T02:04:01.033Z,32.57
2018-03-29T02:06:28.419Z,33.80
2018-03-29T02:08:55.792Z,33.73
2018-03-29T02:11:23.199Z,35.30
2018-03-29T02:13:50.565Z,34.20
2018-03-29T02:16:17.932Z,33.73
2018-03-29T02:18:45.348Z,35.57
2018-03-29T02:21:12.718Z,34.80
2018-03-29T02:23:40.089Z,35.00
2018-03-29T02:26:07.482Z,34.90
2018-03-29T02:28:34.880Z,34.50
2018-03-29T02:31:02.252Z,34.80
2018-03-29T02:33:29.622Z,35.57
2018-03-29T02:35:57.035Z,35.27
2018-03-29T02:38:24.418Z,36.83
2018-03-29T02:40:51.782Z,33.77
2018-03-29T02:43:19.181Z,37.77
2018-03-29T02:45:46.562Z,37.63
2018-03-29T02:48:13.930Z,39.40
2018-03-29T02:50:41.337Z,37.30
2018-03-29T02:53:08.821Z,38.30
2018-03-29T02:55:36.191Z,36.70
2018-03-29T02:58:03.584Z,38.60
2018-03-29T03:00:30.951Z,37.57
2018-03-29T03:02:58.313Z,38.50
2018-03-29T03:05:25.729Z,37.87
2018-03-29T03:07:53.154Z,38.87
2018-03-29T03:10:20.513Z,38.30
2018-03-29T03:12:47.914Z,39.07
2018-03-29T03:15:15.274Z,40.17
2018-03-29T03:17:42.640Z,39.77
2018-03-29T03:20:10.038Z,39.83
2018-03-29T03:22:37.400Z,36.50
2018-03-29T03:25:04.771Z,33.83
2018-03-29T03:27:32.173Z,34.40
2018-03-29T03:29:59.538Z,36.90
2018-03-29T03:32:26.902Z,35.57
2018-03-29T03:34:54.313Z,35.73
2018-03-29T03:37:21.716Z,35.13
2018-03-29T03:39:49.084Z,32.67
2018-03-29T03:42:16.503Z,32.40
2018-03-29T03:44:43.864Z,30.90
2018-03-29T03:47:11.230Z,30.07
2018-03-29T03:49:38.629Z,30.90
2018-03-29T03:52:05.981Z,31.87
2018-03-29T03:54:33.394Z,26.43
2018-03-29T03:57:00.793Z,27.13
2018-03-29T03:59:28.201Z,22.50
2018-03-29T04:01:55.574Z,23.37
2018-03-29T04:04:22.972Z,22.50
2018-03-29T04:06:50.365Z,18.97
2018-03-29T04:09:17.830Z,16.77
2018-03-29T04:11:45.265Z,19.20
2018-03-29T04:14:12.658Z,19.70
2018-03-29T04:16:40.042Z,16.63
2018-03-29T04:19:07.403Z,17.53
2018-03-29T04:21:34.773Z,16.23
2018-03-29T04:24:02.174Z,16.70
2018-03-29T04:26:29.524Z,17.57
2018-03-29T04:28:56.900Z,16.57
2018-03-29T04:31:24.290Z,12.00
2018-03-29T04:33:51.649Z,12.30
2018-03-29T04:36:19.037Z,15.70
2018-03-29T04:38:46.394Z,14.37
2018-03-29T04:41:13.751Z,15.37
2018-03-29T04:43:41.153Z,15.43
2018-03-29T04:46:08.513Z,16.97
2018-03-29T04:48:35.870Z,16.37
2018-03-29T04:51:03.285Z,15.70
2018-03-29T04:53:30.641Z,16.10
2018-03-29T04:55:58.025Z,16.93
2018-03-29T04:58:25.438Z,15.77
2018-03-29T05:00:52.826Z,14.10
2018-03-29T05:03:20.197Z,15.83
2018-03-29T05:05:47.597Z,15.40
2018-03-29T05:08:14.961Z,15.27
2018-03-29T05:10:42.317Z,15.00
2018-03-29T05:13:09.760Z,14.73
2018-03-29T05:15:37.201Z,14.80
2018-03-29T05:18:04.557Z,14.27
2018-03-29T05:20:31.974Z,11.50
2018-03-29T05:22:59.342Z,11.83
2018-03-29T05:25:26.693Z,10.10
2018-03-29T05:27:54.113Z,10.33
2018-03-29T05:30:21.961Z,10.00
2018-03-29T05:32:49.327Z,10.10
2018-03-29T05:35:16.762Z,7.83
2018-03-29T05:37:44.182Z,7.80
2018-03-29T05:40:11.595Z,8.20
2018-03-29T05:42:38.973Z,7.70
2018-03-29T05:45:06.327Z,9.00
2018-03-29T05:47:33.717Z,7.43
2018-03-29T05:50:01.121Z,8.33
2018-03-29T05:52:28.495Z,9.83
2018-03-29T05:54:55.873Z,8.70
2018-03-29T05:57:23.221Z,7.90
2018-03-29T05:59:50.585Z,7.43
2018-03-29T06:02:17.982Z,7.17
2018-03-29T06:04:45.332Z,4.97
2018-03-29T06:07:12.705Z,6.17
2018-03-29T06:09:40.087Z,5.33
2018-03-29T06:12:07.441Z,6.30
2018-03-29T06:14:40.615Z,5.43
2018-03-29T06:17:07.965Z,5.70
2018-03-29T06:19:35.310Z,5.07
2018-03-29T06:22:02.694Z,4.67
2018-03-29T06:24:30.586Z,4.67
2018-03-29T06:26:57.939Z,5.30
2018-03-29T06:29:25.333Z,4.77
2018-03-29T06:31:52.698Z,4.60
2018-03-29T06:34:20.043Z,4.70
2018-03-29T06:36:47.433Z,5.00
2018-03-29T06:39:14.778Z,5.30
2018-03-29T06:41:42.141Z,3.77
2018-03-29T06:44:09.521Z,4.67
2018-03-29T06:46:36.874Z,4.20
2018-03-29T06:49:04.296Z,4.07
2018-03-29T06:51:31.670Z,4.60
2018-03-29T06:53:59.014Z,4.30
2018-03-29T06:56:26.391Z,4.40
2018-03-29T06:58:53.734Z,4.00
2018-03-29T07:01:21.082Z,3.93
2018-03-29T07:03:48.495Z,3.83
2018-03-29T07:06:15.844Z,3.07
2018-03-29T07:08:43.199Z,2.97
2018-03-29T07:11:10.596Z,4.10
2018-03-29T07:13:38.090Z,4.17
2018-03-29T07:16:05.490Z,3.57
2018-03-29T07:18:32.873Z,3.60
2018-03-29T07:21:00.214Z,4.40
2018-03-29T07:23:27.617Z,3.97
2018-03-29T07:25:55.006Z,3.53
2018-03-29T07:28:22.344Z,3.30
2018-03-29T07:30:49.711Z,3.10
2018-03-29T07:33:17.095Z,3.43
2018-03-29T07:35:44.475Z,3.37
2018-03-29T07:38:12.043Z,3.80
2018-03-29T07:40:39.397Z,3.50
2018-03-29T07:43:06.790Z,3.67
2018-03-29T07:45:34.529Z,3.60
2018-03-29T07:48:01.877Z,2.93
2018-03-29T07:50:29.278Z,3.90
2018-03-29T07:52:56.632Z,3.37
2018-03-29T07:55:23.979Z,3.03
2018-03-29T07:57:51.370Z,2.57
2018-03-29T08:00:18.747Z,2.63
2018-03-29T08:02:46.102Z,2.43
2018-03-29T08:05:13.503Z,3.10
2018-03-29T08:07:40.853Z,3.17
2018-03-29T08:10:08.202Z,3.53
2018-03-29T08:12:35.593Z,3.50
2018-03-29T08:15:02.929Z,3.60
2018-03-29T08:17:30.280Z,3.57
2018-03-29T08:19:57.660Z,3.20
2018-03-29T08:22:25.006Z,3.63
2018-03-29T08:24:52.350Z,2.93
2018-03-29T08:27:19.735Z,2.90
2018-03-29T08:29:47.086Z,3.43
2018-03-29T08:32:14.425Z,3.30
2018-03-29T08:34:41.816Z,2.83
2018-03-29T08:37:09.157Z,2.70
2018-03-29T08:39:36.501Z,2.33
2018-03-29T08:42:03.900Z,2.77
2018-03-29T08:44:31.241Z,2.67
2018-03-29T08:46:58.589Z,2.70
2018-03-29T08:49:25.978Z,3.33
2018-03-29T08:51:56.334Z,3.10
2018-03-29T08:54:23.677Z,3.10
2018-03-29T08:56:51.074Z,2.73
2018-03-29T08:59:18.422Z,3.30
2018-03-29T09:01:45.776Z,2.90
2018-03-29T09:04:13.166Z,3.10
2018-03-29T09:06:40.506Z,3.17
2018-03-29T09:09:07.854Z,3.20
2018-03-29T09:11:35.229Z,2.73
2018-03-29T09:14:02.588Z,3.37
2018-03-29T09:16:29.937Z,3.20
2018-03-29T09:18:57.395Z,3.60
2018-03-29T09:21:24.736Z,3.80
2018-03-29T09:23:52.103Z,3.30
2018-03-29T09:26:19.487Z,4.20
2018-03-29T09:28:46.908Z,3.87
2018-03-29T09:31:14.265Z,4.50
2018-03-29T09:33:41.660Z,3.50
2018-03-29T09:36:09.014Z,3.50
2018-03-29T09:38:36.365Z,4.07
2018-03-29T09:41:03.740Z,3.63
2018-03-29T09:43:31.084Z,4.20
2018-03-29T09:45:58.441Z,3.33
2018-03-29T09:48:25.828Z,3.80
2018-03-29T09:50:53.167Z,3.90
2018-03-29T09:53:21.234Z,4.40
2018-03-29T09:55:48.606Z,4.63
2018-03-29T09:58:15.953Z,3.90
2018-03-29T10:00:43.304Z,4.37
2018-03-29T10:03:10.690Z,4.00
2018-03-29T10:05:38.081Z,4.30
2018-03-29T10:08:05.427Z,3.37
2018-03-29T10:10:32.806Z,4.70
2018-03-29T10:13:00.163Z,3.80
2018-03-29T10:15:27.504Z,4.60
2018-03-29T10:17:54.877Z,3.93
2018-03-29T10:20:22.270Z,3.90
2018-03-29T10:22:49.644Z,3.70
2018-03-29T10:25:16.989Z,3.33
2018-03-29T10:27:44.378Z,4.03
2018-03-29T10:30:11.740Z,3.60
2018-03-29T10:32:39.098Z,3.43
2018-03-29T10:35:06.495Z,3.40
2018-03-29T10:37:33.833Z,2.87
2018-03-29T10:40:01.196Z,3.47
2018-03-29T10:42:28.577Z,3.07
2018-03-29T10:44:55.921Z,3.10
2018-03-29T10:47:23.266Z,3.17
2018-03-29T10:49:50.671Z,3.30
2018-03-29T10:52:18.028Z,3.20
2018-03-29T10:54:45.368Z,3.20
2018-03-29T10:57:12.761Z,3.13
2018-03-29T10:59:40.113Z,2.90
2018-03-29T11:02:07.754Z,3.20
2018-03-29T11:04:35.129Z,2.77
2018-03-29T11:07:02.481Z,3.73
2018-03-29T11:09:29.827Z,3.17
2018-03-29T11:11:57.205Z,3.00
2018-03-29T11:14:24.549Z,2.70
2018-03-29T11:16:51.896Z,2.80
2018-03-29T11:19:19.272Z,3.50
2018-03-29T11:21:46.635Z,3.27
2018-03-29T11:24:13.978Z,3.10
2018-03-29T11:26:41.356Z,3.43
2018-03-29T11:29:08.701Z,3.80
2018-03-29T11:31:36.064Z,3.30
2018-03-29T11:34:03.456Z,3.03
2018-03-29T11:36:30.801Z,3.10
2018-03-29T11:38:58.149Z,3.40
2018-03-29T11:41:25.545Z,3.30
2018-03-29T11:43:52.895Z,3.23
2018-03-29T11:46:20.247Z,4.03
2018-03-29T11:48:47.630Z,3.87
2018-03-29T11:51:15.003Z,3.67
2018-03-29T11:53:42.349Z,3.70
2018-03-29T11:56:09.754Z,3.70
2018-03-29T11:58:37.153Z,3.50
2018-03-29T12:01:04.502Z,4.50
2018-03-29T12:03:31.885Z,4.50
2018-03-29T12:05:59.232Z,4.03
2018-03-29T12:08:26.585Z,4.07
2018-03-29T12:10:53.978Z,3.40
2018-03-29T12:13:21.334Z,4.93
2018-03-29T12:15:48.676Z,4.13
2018-03-29T12:18:16.049Z,4.43
2018-03-29T12:20:43.392Z,3.80
2018-03-29T12:23:10.745Z,4.37
2018-03-29T12:25:38.130Z,4.00
2018-03-29T12:28:05.521Z,4.53
2018-03-29T12:30:32.865Z,3.60
2018-03-29T12:33:00.266Z,4.50
2018-03-29T12:35:27.653Z,4.07
2018-03-29T12:37:54.993Z,3.30
2018-03-29T12:40:22.382Z,3.23
2018-03-29T12:42:49.738Z,3.80
2018-03-29T12:45:17.093Z,4.30
2018-03-29T12:47:44.483Z,4.10
2018-03-29T12:50:11.841Z,4.47
2018-03-29T12:52:39.222Z,4.40
2018-03-29T12:55:12.453Z,4.33
2018-03-29T12:57:45.811Z,4.00
2018-03-29T13:00:13.211Z,4.70
2018-03-29T13:02:40.550Z,4.73
2018-03-29T13:05:07.933Z,4.17
2018-03-29T13:07:35.282Z,4.63
2018-03-29T13:10:02.694Z,5.70
2018-03-29T13:12:30.079Z,4.83
2018-03-29T13:14:57.442Z,5.17
2018-03-29T13:17:24.792Z,4.93
2018-03-29T13:19:52.184Z,5.30
2018-03-29T13:22:19.590Z,5.43
2018-03-29T13:24:46.956Z,6.23
2018-03-29T13:27:14.341Z,6.27
2018-03-29T13:29:44.809Z,5.63
2018-03-29T13:32:12.158Z,6.47
2018-03-29T13:34:39.540Z,7.13
2018-03-29T13:37:06.906Z,8.23
2018-03-29T13:39:34.261Z,7.60
2018-03-29T13:42:01.669Z,7.00
2018-03-29T13:44:29.034Z,7.30
2018-03-29T13:46:56.385Z,8.63
2018-03-29T13:49:23.785Z,7.93
2018-03-29T13:51:51.187Z,7.23
2018-03-29T13:54:18.546Z,7.50
2018-03-29T13:56:45.938Z,7.60
2018-03-29T13:59:13.294Z,7.50
2018-03-29T14:01:40.645Z,7.30
2018-03-29T14:04:08.057Z,7.50
2018-03-29T14:06:35.419Z,7.37
2018-03-29T14:09:02.929Z,8.13
2018-03-29T14:11:30.313Z,7.43
2018-03-29T14:13:57.669Z,7.77
2018-03-29T14:16:25.018Z,7.80
2018-03-29T14:18:52.413Z,8.47
2018-03-29T14:21:19.770Z,9.20
2018-03-29T14:23:47.160Z,7.70
2018-03-29T14:26:14.586Z,9.50
2018-03-29T14:28:41.962Z,10.00
2018-03-29T14:31:09.317Z,9.53
2018-03-29T14:33:36.693Z,9.60
2018-03-29T14:36:04.091Z,9.10
2018-03-29T14:38:31.511Z,9.80
2018-03-29T14:40:58.905Z,7.53
2018-03-29T14:43:26.274Z,9.63
2018-03-29T14:45:53.682Z,10.83
2018-03-29T14:48:21.030Z,9.63
2018-03-29T14:50:48.447Z,9.30
2018-03-29T14:53:15.853Z,9.30
2018-03-29T14:55:43.210Z,9.60
2018-03-29T14:58:10.561Z,10.17
2018-03-29T15:00:37.962Z,9.87
2018-03-29T15:03:05.341Z,10.03
2018-03-29T15:05:32.694Z,9.50
2018-03-29T15:08:00.097Z,10.43
2018-03-29T15:10:27.467Z,9.70
2018-03-29T15:12:54.828Z,10.47
2018-03-29T15:15:22.230Z,10.50
2018-03-29T15:17:49.601Z,10.20
2018-03-29T15:20:16.961Z,10.50
2018-03-29T15:22:44.351Z,10.10
2018-03-29T15:25:11.701Z,9.80
2018-03-29T15:27:39.057Z,11.93
2018-03-29T15:30:06.480Z,11.33
2018-03-29T15:32:33.845Z,12.17
2018-03-29T15:35:01.238Z,12.50
2018-03-29T15:37:28.656Z,10.80
2018-03-29T15:39:56.013Z,11.33
2018-03-29T15:42:23.459Z,10.93
2018-03-29T15:44:50.865Z,11.43
2018-03-29T15:47:18.271Z,11.47
2018-03-29T15:49:45.635Z,11.30
2018-03-29T15:52:13.025Z,11.10
2018-03-29T15:54:40.394Z,11.87
2018-03-29T15:57:07.749Z,11.50
2018-03-29T15:59:35.162Z,11.07
2018-03-29T16:02:02.547Z,12.57
2018-03-29T16:04:29.910Z,11.23
2018-03-29T16:06:57.413Z,12.60
2018-03-29T16:09:24.778Z,12.17
2018-03-29T16:11:52.161Z,11.50
2018-03-29T16:14:19.538Z,11.80
2018-03-29T16:16:46.901Z,11.17
2018-03-29T16:19:14.314Z,12.30
2018-03-29T16:21:41.674Z,10.10
2018-03-29T16:24:09.049Z,11.37
2018-03-29T16:26:36.436Z,11.53
2018-03-29T16:29:03.869Z,12.13
2018-03-29T16:31:31.233Z,11.17
2018-03-29T16:33:58.621Z,11.40
2018-03-29T16:36:25.978Z,10.57
2018-03-29T16:38:53.349Z,11.83
2018-03-29T16:41:20.833Z,10.07
2018-03-29T16:43:48.202Z,12.13
2018-03-29T16:46:15.561Z,11.57
2018-03-29T16:48:42.975Z,10.57
2018-03-29T16:51:10.339Z,11.37
2018-03-29T16:53:37.716Z,11.70
2018-03-29T16:56:05.154Z,11.40
2018-03-29T16:58:33.134Z,11.53
2018-03-29T17:01:00.484Z,11.73
2018-03-29T17:03:28.002Z,11.73
2018-03-29T17:05:55.361Z,11.03
2018-03-29T17:08:22.764Z,11.50
2018-03-29T17:10:50.167Z,11.43
2018-03-29T17:13:17.534Z,11.57
2018-03-29T17:15:44.885Z,12.67
2018-03-29T17:18:12.271Z,10.87
2018-03-29T17:20:39.626Z,12.47
2018-03-29T17:23:06.986Z,12.50
2018-03-29T17:25:34.386Z,12.37
2018-03-29T17:28:01.742Z,12.37
2018-03-29T17:30:29.153Z,12.20
2018-03-29T17:32:56.549Z,12.53
2018-03-29T17:35:23.909Z,12.63
2018-03-29T17:37:51.270Z,12.23
2018-03-29T17:40:18.666Z,12.63
2018-03-29T17:42:46.031Z,12.97
2018-03-29T17:45:13.391Z,10.00
2018-03-29T17:50:07.573Z,9.07
2018-03-29T17:52:34.931Z,9.40
2018-03-29T17:55:02.336Z,10.90
2018-03-29T17:57:29.693Z,11.83
2018-03-29T17:59:57.050Z,11.47
2018-03-29T18:02:24.467Z,12.50
2018-03-29T18:04:51.826Z,10.73
2018-03-29T18:07:19.191Z,11.90
2018-03-29T18:09:46.637Z,11.90
2018-03-29T18:12:13.993Z,12.27
2018-03-29T18:14:41.351Z,12.30
2018-03-29T18:17:08.761Z,11.33
2018-03-29T18:19:36.121Z,11.77
2018-03-29T18:22:03.498Z,11.97
2018-03-29T18:24:30.899Z,13.90
2018-03-29T18:26:58.252Z,14.30
2018-03-29T18:29:25.605Z,12.20
2018-03-29T18:31:53.014Z,12.53
2018-03-29T18:34:20.378Z,14.20
2018-03-29T18:36:47.805Z,13.53
2018-03-29T18:39:15.202Z,13.23
2018-03-29T18:41:42.552Z,14.03
2018-03-29T18:44:09.919Z,14.60
2018-03-29T18:46:37.321Z,14.37
2018-03-29T18:49:04.731Z,13.40
2018-03-29T18:51:32.088Z,14.50
2018-03-29T18:53:59.509Z,15.13
2018-03-29T18:56:26.929Z,14.03
2018-03-29T18:58:54.293Z,16.47
2018-03-29T19:01:21.678Z,16.63
2018-03-29T19:03:49.066Z,14.00
2018-03-29T19:06:16.469Z,14.77
2018-03-29T19:08:43.879Z,14.70
2018-03-29T19:11:11.250Z,14.17
2018-03-29T19:13:38.649Z,12.70
2018-03-29T19:16:05.998Z,14.67
2018-03-29T19:18:33.390Z,14.17
2018-03-29T19:21:00.791Z,14.40
2018-03-29T19:23:28.150Z,14.63
2018-03-29T19:25:55.506Z,14.07
2018-03-29T19:28:22.923Z,13.70
2018-03-29T19:30:50.309Z,13.53
2018-03-29T19:33:17.670Z,13.33
2018-03-29T19:35:45.080Z,13.77
2018-03-29T19:38:12.518Z,12.47
2018-03-29T19:40:39.906Z,12.47
2018-03-29T19:43:10.406Z,12.37
2018-03-29T19:45:37.816Z,11.77
2018-03-29T19:48:05.194Z,12.27
2018-03-29T19:50:32.606Z,11.80
2018-03-29T19:53:00.739Z,13.27
2018-03-29T19:55:28.107Z,11.20
2018-03-29T19:57:55.505Z,12.37
2018-03-29T20:00:22.887Z,12.03
2018-03-29T20:02:50.250Z,11.23
2018-03-29T20:05:18.605Z,12.13
2018-03-29T20:07:45.965Z,12.47
2018-03-29T20:10:13.325Z,12.63
2018-03-29T20:12:40.726Z,11.33
2018-03-29T20:15:08.086Z,12.20
2018-03-29T20:17:35.441Z,11.70
2018-03-29T20:20:02.857Z,11.50
2018-03-29T20:22:30.275Z,11.17
2018-03-29T20:24:57.662Z,10.33
2018-03-29T20:27:25.026Z,12.57
2018-03-29T20:29:52.441Z,11.57
2018-03-29T20:32:19.834Z,11.00
2018-03-29T20:34:47.187Z,13.03
2018-03-29T20:37:14.606Z,13.27
2018-03-29T20:39:41.977Z,15.10
2018-03-29T20:42:09.333Z,14.23
2018-03-29T20:44:36.768Z,13.20
2018-03-29T20:47:04.122Z,12.97
2018-03-29T20:49:31.477Z,12.87
2018-03-29T20:51:59.413Z,14.43
2018-03-29T20:54:26.802Z,14.67
2018-03-29T20:56:54.166Z,13.27
2018-03-29T20:59:21.553Z,14.20
2018-03-29T21:01:48.926Z,14.30
2018-03-29T21:04:16.287Z,12.97
2018-03-29T21:06:43.728Z,13.47
2018-03-29T21:09:11.089Z,13.43
2018-03-29T21:11:38.457Z,12.93
2018-03-29T21:14:05.845Z,13.67
2018-03-29T21:16:33.196Z,12.80
2018-03-29T21:19:00.556Z,11.60
2018-03-29T21:21:27.947Z,12.43
2018-03-29T21:23:55.314Z,15.00
2018-03-29T21:26:22.678Z,12.90
2018-03-29T21:28:50.092Z,12.77
2018-03-29T21:31:17.453Z,12.47
2018-03-29T21:33:44.833Z,13.50
2018-03-29T21:36:12.235Z,13.53
2018-03-29T21:38:39.590Z,13.77
2018-03-29T21:41:06.993Z,11.73
2018-03-29T21:43:34.349Z,12.53
2018-03-29T21:46:01.702Z,12.23
2018-03-29T21:48:29.102Z,12.37
2018-03-29T21:50:56.486Z,13.03
2018-03-29T21:53:23.863Z,13.33
2018-03-29T21:55:51.274Z,14.53
2018-03-29T21:58:18.642Z,13.40
2018-03-29T22:00:45.997Z,14.90
2018-03-29T22:03:13.426Z,14.67
2018-03-29T22:05:40.827Z,15.90
2018-03-29T22:08:08.199Z,14.40
2018-03-29T22:10:39.157Z,16.63
2018-03-29T22:13:06.526Z,15.87
2018-03-29T22:15:33.890Z,16.33
2018-03-29T22:18:01.278Z,16.00
2018-03-29T22:20:28.636Z,15.80
2018-03-29T22:22:56.090Z,16.57
2018-03-29T22:25:23.481Z,16.00
2018-03-29T22:27:50.908Z,15.20
2018-03-29T22:30:18.283Z,16.13
2018-03-29T22:32:45.651Z,15.53
2018-03-29T22:35:13.054Z,17.73
2018-03-29T22:37:40.405Z,17.33
2018-03-29T22:40:07.762Z,18.30
2018-03-29T22:42:35.160Z,16.97
2018-03-29T22:45:02.518Z,16.60
2018-03-29T22:47:29.869Z,17.20
2018-03-29T22:49:57.252Z,18.20
2018-03-29T22:52:24.604Z,18.20
2018-03-29T22:54:51.970Z,17.90
2018-03-29T22:57:19.365Z,16.90
2018-03-29T22:59:46.721Z,17.10
2018-03-29T23:02:14.078Z,16.23
2018-03-29T23:04:41.491Z,17.70
2018-03-29T23:07:08.850Z,17.20
2018-03-29T23:09:36.201Z,18.43
2018-03-29T23:12:03.592Z,16.97
2018-03-29T23:14:30.963Z,18.70
2018-03-29T23:16:58.336Z,19.00
2018-03-29T23:19:25.716Z,18.87
2018-03-29T23:21:53.085Z,18.57
2018-03-29T23:24:20.446Z,17.57
2018-03-29T23:26:47.881Z,19.07
2018-03-29T23:29:15.265Z,20.77
2018-03-29T23:31:42.626Z,18.27
2018-03-29T23:34:10.042Z,18.80
2018-03-29T23:36:37.402Z,17.97
2018-03-29T23:39:05.520Z,19.53
2018-03-29T23:41:32.929Z,19.03
2018-03-29T23:44:00.301Z,18.03
2018-03-29T23:46:27.671Z,19.20
2018-03-29T23:48:55.078Z,19.30
2018-03-29T23:51:22.436Z,19.03
2018-03-29T23:53:49.794Z,19.70
2018-03-29T23:56:17.221Z,19.33
2018-03-29T23:58:44.573Z,20.57
